Time;durP1;ratioP1;P1;durP2;ratioP2;P2;SDS_P1;SDS_P2;PMS_P1;PMS_P2;Temp;Humidity;BMP_temperature;BMP_pressure;BME280_temperature;BME280_humidity;BME280_pressure;Samples;Min_cycle;Max_cycle;Signal;HPM_P1;HPM_P2
2022/05/17 00:02:22;;;;;;;9.55;5.28;;;18.90;99.90;;;;;;5028736;28;20034;-75
2022/05/17 00:04:50;;;;;;;10.57;6.13;;;18.90;99.90;;;;;;5028885;28;20119;-75
2022/05/17 00:07:17;;;;;;;12.18;6.70;;;18.60;99.90;;;;;;5027860;28;20042;-76
2022/05/17 00:09:45;;;;;;;9.57;6.18;;;18.80;99.90;;;;;;5029778;28;20076;-76
2022/05/17 00:12:12;;;;;;;10.00;6.20;;;18.90;99.90;;;;;;5030105;28;20500;-77
2022/05/17 00:14:40;;;;;;;9.20;6.30;;;18.80;99.90;;;;;;5030471;28;20418;-77
2022/05/17 00:17:09;;;;;;;11.20;6.22;;;18.90;99.90;;;;;;5030507;28;20057;-76
2022/05/17 00:19:37;;;;;;;8.77;5.45;;;19.00;99.90;;;;;;5030188;28;20563;-77
2022/05/17 00:22:04;;;;;;;10.80;5.90;;;19.20;99.90;;;;;;5031203;28;20426;-77
2022/05/17 00:24:32;;;;;;;12.43;6.20;;;19.20;99.90;;;;;;5031071;28;20486;-78
2022/05/17 00:26:59;;;;;;;9.13;6.00;;;19.00;99.90;;;;;;5029934;28;20045;-78
2022/05/17 00:29:26;;;;;;;12.65;5.70;;;19.20;99.90;;;;;;5026070;28;20129;-77
2022/05/17 00:31:54;;;;;;;9.23;5.28;;;18.90;99.90;;;;;;5030858;28;20037;-74
2022/05/17 00:34:23;;;;;;;12.70;5.85;;;18.90;99.90;;;;;;5029497;28;20049;-74
2022/05/17 00:36:50;;;;;;;11.00;5.70;;;18.90;99.90;;;;;;5030787;28;20119;-75
2022/05/17 00:39:17;;;;;;;9.95;5.80;;;18.40;99.90;;;;;;5029282;28;20115;-78
2022/05/17 00:41:45;;;;;;;10.35;5.90;;;18.60;99.90;;;;;;5030861;28;20038;-77
2022/05/17 00:47:21;;;;;;;9.68;5.68;;;18.40;99.90;;;;;;5035116;28;20125;-77
2022/05/17 00:50:08;;;;;;;10.85;5.20;;;18.60;99.90;;;;;;5013975;28;20080;-78
2022/05/17 00:52:41;;;;;;;14.68;5.72;;;18.70;99.90;;;;;;5007840;28;20108;-75
2022/05/17 00:55:17;;;;;;;15.77;7.22;;;18.60;99.90;;;;;;5018948;28;20383;-75
2022/05/17 00:57:59;;;;;;;6.97;5.30;;;18.80;99.90;;;;;;5033799;28;20104;-76
2022/05/17 01:00:30;;;;;;;11.35;5.50;;;19.00;99.90;;;;;;5034742;28;20103;-76
2022/05/17 01:03:03;;;;;;;8.77;5.35;;;18.80;99.90;;;;;;5035143;28;20687;-76
2022/05/17 01:05:34;;;;;;;10.85;5.63;;;18.50;99.90;;;;;;5034717;28;20120;-75
2022/05/17 01:08:02;;;;;;;12.07;5.28;;;18.30;99.90;;;;;;5034541;28;20041;-75
2022/05/17 01:10:30;;;;;;;9.05;5.50;;;18.50;99.90;;;;;;5034461;28;20843;-77
2022/05/17 01:15:45;;;;;;;11.68;5.85;;;18.30;99.90;;;;;;5034414;28;20045;-75
2022/05/17 01:18:12;;;;;;;8.98;5.43;;;18.30;99.90;;;;;;5033196;28;20107;-77
2022/05/17 01:20:40;;;;;;;9.70;6.43;;;18.30;99.90;;;;;;5034335;28;20041;-75
2022/05/17 01:23:08;;;;;;;12.15;6.78;;;18.40;99.90;;;;;;5033029;28;20060;-76
2022/05/17 01:25:35;;;;;;;9.10;5.38;;;18.50;99.90;;;;;;5034412;28;20124;-76
2022/05/17 01:28:13;;;;;;;9.27;5.35;;;18.30;99.90;;;;;;5033346;28;20133;-77
2022/05/17 01:30:40;;;;;;;10.90;5.22;;;18.30;99.90;;;;;;5033097;28;20446;-76
2022/05/17 01:33:19;;;;;;;8.25;5.45;;;18.10;99.90;;;;;;5033145;28;20045;-77
2022/05/17 01:35:46;;;;;;;10.80;5.38;;;18.20;99.90;;;;;;5033580;28;20045;-76
2022/05/17 01:38:14;;;;;;;8.38;5.25;;;18.20;99.90;;;;;;5034353;28;20073;-77
2022/05/17 01:40:42;;;;;;;11.70;5.60;;;18.20;99.90;;;;;;5033597;28;20033;-76
2022/05/17 01:43:09;;;;;;;10.85;5.57;;;18.30;99.90;;;;;;5032371;28;20045;-77
2022/05/17 01:45:37;;;;;;;10.45;5.43;;;18.20;99.90;;;;;;5033891;28;20046;-75
2022/05/17 01:48:05;;;;;;;9.35;5.75;;;18.00;99.90;;;;;;5034143;28;20041;-76
2022/05/17 01:50:32;;;;;;;9.48;5.40;;;18.10;99.90;;;;;;5031934;28;20037;-75
2022/05/17 01:52:59;;;;;;;12.63;5.38;;;18.00;99.90;;;;;;5032689;28;20372;-75
2022/05/17 01:55:27;;;;;;;13.30;5.97;;;18.20;99.90;;;;;;5031344;28;20446;-74
2022/05/17 01:57:54;;;;;;;9.95;5.85;;;18.10;99.90;;;;;;5033171;28;20497;-73
2022/05/17 02:00:23;;;;;;;13.55;5.97;;;17.90;99.90;;;;;;5033613;28;20073;-76
2022/05/17 02:02:51;;;;;;;11.82;5.72;;;17.90;99.90;;;;;;5033950;28;20045;-75
2022/05/17 02:05:21;;;;;;;11.02;5.95;;;17.80;99.90;;;;;;5033058;28;20065;-76
2022/05/17 02:07:50;;;;;;;11.65;5.30;;;17.90;99.90;;;;;;5032492;28;20422;-76
2022/05/17 02:10:19;;;;;;;11.70;5.60;;;18.00;99.90;;;;;;5033433;28;20455;-75
2022/05/17 02:12:46;;;;;;;8.23;5.60;;;17.80;99.90;;;;;;5031843;28;20053;-76
2022/05/17 02:15:13;;;;;;;9.65;5.50;;;17.60;99.90;;;;;;5033327;28;20463;-75
2022/05/17 02:17:42;;;;;;;9.65;5.53;;;17.50;99.90;;;;;;5032213;28;20095;-77
2022/05/17 02:20:10;;;;;;;10.15;5.28;;;17.60;99.90;;;;;;5032401;28;20049;-75
2022/05/17 02:22:37;;;;;;;11.55;5.50;;;17.80;99.90;;;;;;5033630;28;20477;-76
2022/05/17 02:25:05;;;;;;;12.88;5.57;;;17.90;99.90;;;;;;5033304;28;20049;-74
2022/05/17 02:27:32;;;;;;;8.75;5.00;;;18.00;99.90;;;;;;5033621;28;20068;-77
2022/05/17 02:30:00;;;;;;;10.20;5.75;;;17.90;99.90;;;;;;5033144;28;20050;-74
2022/05/17 02:32:27;;;;;;;10.23;5.32;;;17.80;99.90;;;;;;5033008;28;20053;-76
2022/05/17 02:34:54;;;;;;;9.63;6.13;;;17.50;99.90;;;;;;5031673;28;20041;-76
2022/05/17 02:37:22;;;;;;;16.85;6.55;;;17.40;99.90;;;;;;5032935;28;20041;-76
2022/05/17 02:39:49;;;;;;;10.00;6.13;;;17.60;99.90;;;;;;5031795;28;20448;-76
2022/05/17 02:42:16;;;;;;;12.20;6.05;;;17.50;99.90;;;;;;5032698;28;20063;-76
2022/05/17 02:44:44;;;;;;;11.85;6.88;;;17.40;99.90;;;;;;5032995;28;20041;-76
2022/05/17 02:47:11;;;;;;;12.32;6.28;;;17.60;99.90;;;;;;5032801;28;20068;-77
2022/05/17 02:49:40;;;;;;;10.07;5.97;;;17.70;99.90;;;;;;5032490;28;20076;-75
2022/05/17 02:52:08;;;;;;;8.02;5.80;;;17.60;99.90;;;;;;5032346;28;20037;-76
2022/05/17 02:54:35;;;;;;;7.22;5.10;;;17.40;99.90;;;;;;5033244;28;20495;-76
2022/05/17 02:57:02;;;;;;;7.18;5.18;;;17.50;99.90;;;;;;5032216;28;20112;-74
2022/05/17 02:59:30;;;;;;;14.07;5.35;;;17.50;99.90;;;;;;5032854;28;20072;-75
2022/05/17 03:01:59;;;;;;;11.05;5.07;;;17.50;99.90;;;;;;5032146;28;20049;-77
2022/05/17 03:04:27;;;;;;;8.57;5.50;;;17.20;99.90;;;;;;5031426;28;20392;-76
2022/05/17 03:06:55;;;;;;;14.65;5.50;;;17.20;99.90;;;;;;5014912;28;20460;-76
2022/05/17 03:09:23;;;;;;;10.02;5.32;;;16.90;99.90;;;;;;5032296;28;20057;-77
2022/05/17 03:11:51;;;;;;;10.85;5.53;;;16.80;99.90;;;;;;5031896;28;20037;-76
2022/05/17 03:14:18;;;;;;;9.77;6.15;;;17.00;99.90;;;;;;5032481;28;20072;-75
2022/05/17 03:16:46;;;;;;;9.55;6.30;;;17.20;99.90;;;;;;5030592;28;20045;-77
2022/05/17 03:19:13;;;;;;;9.55;6.25;;;17.00;99.90;;;;;;5032151;28;20495;-76
2022/05/17 03:21:41;;;;;;;10.48;6.43;;;16.70;99.90;;;;;;5032024;28;20402;-78
2022/05/17 03:24:08;;;;;;;11.85;6.07;;;16.60;99.90;;;;;;5031116;28;20064;-76
2022/05/17 03:26:55;;;;;;;9.75;6.18;;;16.50;99.90;;;;;;5031911;28;20427;-75
2022/05/17 03:29:23;;;;;;;9.73;6.10;;;16.50;99.90;;;;;;5030825;28;20038;-75
2022/05/17 03:31:51;;;;;;;8.95;7.20;;;16.30;99.90;;;;;;5030820;28;20077;-76
2022/05/17 03:34:18;;;;;;;9.98;7.47;;;16.60;99.90;;;;;;5032296;28;20091;-77
2022/05/17 03:36:46;;;;;;;11.30;7.78;;;16.70;99.90;;;;;;5031676;28;20052;-77
2022/05/17 03:39:14;;;;;;;12.75;6.55;;;16.60;99.90;;;;;;5031241;28;20084;-77
2022/05/17 03:41:41;;;;;;;12.07;7.68;;;16.50;99.90;;;;;;5031356;28;20118;-77
2022/05/17 03:44:08;;;;;;;13.65;8.23;;;16.80;99.90;;;;;;5031987;28;20041;-74
2022/05/17 03:46:37;;;;;;;13.77;7.35;;;17.00;99.90;;;;;;5031651;28;20142;-76
2022/05/17 03:49:10;;;;;;;9.27;6.13;;;16.90;99.90;;;;;;5031862;28;20056;-75
2022/05/17 03:51:37;;;;;;;23.23;5.93;;;17.00;99.90;;;;;;5031586;28;20150;-76
2022/05/17 03:54:05;;;;;;;14.52;5.88;;;17.00;99.90;;;;;;5031639;28;20384;-76
2022/05/17 03:56:32;;;;;;;10.50;5.72;;;17.00;99.90;;;;;;5031557;28;20127;-76
2022/05/17 03:58:59;;;;;;;10.30;6.25;;;16.90;99.90;;;;;;5031690;28;20044;-77
2022/05/17 04:01:26;;;;;;;9.18;5.10;;;16.90;99.90;;;;;;5031111;28;20124;-76
2022/05/17 04:03:54;;;;;;;9.35;5.75;;;17.00;99.90;;;;;;5030822;28;20048;-78
2022/05/17 04:06:23;;;;;;;8.48;5.25;;;17.10;99.90;;;;;;5031552;28;20041;-76
2022/05/17 04:08:50;;;;;;;11.55;5.40;;;17.00;99.90;;;;;;5031396;28;20441;-78
2022/05/17 04:11:17;;;;;;;12.80;5.68;;;16.90;99.90;;;;;;5031602;28;20045;-77
2022/05/17 04:13:45;;;;;;;10.30;5.45;;;16.60;99.90;;;;;;5031052;28;20102;-76
2022/05/17 04:16:12;;;;;;;10.38;5.57;;;16.80;99.90;;;;;;5031575;28;20049;-76
2022/05/17 04:18:40;;;;;;;10.05;5.38;;;16.80;99.90;;;;;;5029676;28;20394;-77
2022/05/17 04:21:08;;;;;;;13.43;5.78;;;17.00;99.90;;;;;;5013666;28;20045;-77
2022/05/17 04:23:37;;;;;;;11.52;5.80;;;17.20;99.90;;;;;;5031620;28;20033;-77
2022/05/17 04:26:05;;;;;;;15.38;5.78;;;17.20;99.90;;;;;;5030689;28;20080;-76
2022/05/17 04:28:32;;;;;;;18.75;6.30;;;17.30;99.90;;;;;;5030991;28;20057;-77
2022/05/17 04:30:59;;;;;;;15.35;6.57;;;17.10;99.90;;;;;;5031259;28;20398;-76
2022/05/17 04:33:26;;;;;;;12.02;5.65;;;17.30;99.90;;;;;;5031320;28;20446;-75
2022/05/17 04:35:54;;;;;;;12.88;6.20;;;17.40;99.90;;;;;;5029968;28;20517;-76
2022/05/17 04:38:21;;;;;;;11.52;6.40;;;17.50;99.90;;;;;;5030816;28;20509;-77
2022/05/17 04:40:49;;;;;;;12.85;5.90;;;17.60;99.90;;;;;;5031169;28;20045;-77
2022/05/17 04:43:16;;;;;;;40.53;24.75;;;17.60;99.90;;;;;;5031026;28;20073;-78
2022/05/17 04:45:45;;;;;;;32.53;19.00;;;18.00;99.90;;;;;;5031089;28;20376;-77
2022/05/17 04:48:12;;;;;;;31.17;17.73;;;17.70;99.90;;;;;;5030643;28;20041;-77
2022/05/17 04:50:40;;;;;;;19.00;9.63;;;17.70;99.90;;;;;;5030710;28;20095;-76
2022/05/17 04:53:07;;;;;;;9.50;5.75;;;17.60;99.90;;;;;;5030962;28;20529;-76
2022/05/17 04:55:35;;;;;;;16.40;6.90;;;17.10;99.90;;;;;;5031196;28;20061;-76
2022/05/17 04:58:02;;;;;;;10.93;7.07;;;17.20;99.90;;;;;;5030710;28;20069;-76
2022/05/17 05:00:29;;;;;;;11.30;5.68;;;17.60;99.90;;;;;;5031401;28;20182;-77
2022/05/17 05:02:57;;;;;;;10.90;6.18;;;18.00;99.90;;;;;;5031539;28;20072;-76
2022/05/17 05:05:30;;;;;;;10.65;5.90;;;18.00;99.90;;;;;;5031560;28;20038;-76
2022/05/17 05:07:57;;;;;;;12.82;5.22;;;17.90;99.90;;;;;;5030941;28;20149;-76
2022/05/17 05:10:25;;;;;;;8.45;5.25;;;17.60;99.90;;;;;;5030487;28;20111;-76
2022/05/17 05:12:52;;;;;;;8.55;4.57;;;17.70;99.90;;;;;;5030687;28;20069;-76
2022/05/17 05:15:19;;;;;;;109.97;67.40;;;17.70;99.90;;;;;;5030994;28;20054;-76
2022/05/17 05:17:47;;;;;;;131.68;84.63;;;17.80;99.90;;;;;;5030462;28;20399;-78
2022/05/17 05:20:16;;;;;;;39.40;25.77;;;18.00;99.90;;;;;;5030751;28;20050;-76
2022/05/17 05:22:44;;;;;;;15.05;9.38;;;18.20;99.90;;;;;;5030545;28;20490;-74
2022/05/17 05:25:13;;;;;;;10.05;6.45;;;18.10;99.90;;;;;;5030739;28;20045;-76
2022/05/17 05:27:41;;;;;;;10.13;5.85;;;18.10;99.90;;;;;;5030670;28;20049;-77
2022/05/17 05:30:12;;;;;;;9.30;5.60;;;18.00;99.90;;;;;;5029481;28;20049;-78
2022/05/17 05:32:39;;;;;;;14.57;7.53;;;18.00;99.90;;;;;;5033485;28;20141;-76
2022/05/17 05:35:07;;;;;;;11.43;6.43;;;18.10;99.90;;;;;;5032594;28;20037;-76
2022/05/17 05:37:35;;;;;;;9.88;6.15;;;18.20;99.90;;;;;;5039757;28;20556;-76
2022/05/17 05:40:03;;;;;;;8.23;5.60;;;18.30;99.90;;;;;;5042395;28;20498;-78
2022/05/17 05:42:30;;;;;;;11.95;5.43;;;18.30;99.90;;;;;;5051305;28;20068;-77
2022/05/17 05:44:58;;;;;;;11.43;6.20;;;18.00;99.90;;;;;;5051607;28;20045;-77
2022/05/17 05:47:25;;;;;;;9.82;5.65;;;18.30;99.90;;;;;;5040029;28;20041;-78
2022/05/17 05:49:52;;;;;;;12.60;6.05;;;18.50;99.90;;;;;;5052876;28;20124;-78
2022/05/17 05:52:19;;;;;;;10.93;6.03;;;18.70;99.90;;;;;;5053572;28;20120;-78
2022/05/17 05:54:47;;;;;;;9.82;6.03;;;18.50;99.90;;;;;;5053411;28;20102;-78
2022/05/17 05:57:14;;;;;;;9.48;5.93;;;18.70;99.90;;;;;;5046290;28;20410;-77
2022/05/17 05:59:42;;;;;;;10.32;5.63;;;19.00;99.90;;;;;;5053583;28;20048;-77
2022/05/17 06:02:10;;;;;;;9.23;5.78;;;18.90;99.90;;;;;;5052607;28;20438;-77
2022/05/17 06:04:38;;;;;;;17.17;6.32;;;19.00;99.90;;;;;;5053825;28;20051;-77
2022/05/17 06:07:06;;;;;;;11.20;5.72;;;19.10;99.90;;;;;;5054006;28;20040;-80
2022/05/17 06:09:33;;;;;;;10.35;6.22;;;19.10;99.90;;;;;;5052457;28;20091;-78
2022/05/17 06:12:00;;;;;;;10.60;6.47;;;19.10;99.90;;;;;;5053678;28;20045;-77
2022/05/17 06:14:29;;;;;;;11.80;6.35;;;19.10;99.90;;;;;;5052256;28;20491;-78
2022/05/17 06:16:56;;;;;;;13.10;6.55;;;19.10;99.90;;;;;;5076714;22;20071;-79
2022/05/17 06:19:24;;;;;;;11.02;6.63;;;19.00;99.90;;;;;;5013969;28;20096;-81
2022/05/17 06:21:51;;;;;;;10.32;6.07;;;19.30;99.90;;;;;;5013514;28;20038;-78
2022/05/17 06:24:19;;;;;;;12.15;6.07;;;19.20;99.90;;;;;;4996509;28;20046;-80
2022/05/17 06:26:46;;;;;;;9.55;6.20;;;19.10;99.90;;;;;;5013562;28;20042;-79
2022/05/17 06:29:14;;;;;;;14.23;6.20;;;19.10;99.90;;;;;;4996736;28;20100;-80
2022/05/17 06:31:41;;;;;;;21.67;6.70;;;19.10;99.90;;;;;;5013563;28;20080;-79
2022/05/17 06:34:08;;;;;;;15.68;5.75;;;19.30;99.90;;;;;;5012342;28;20124;-79
2022/05/17 06:36:35;;;;;;;14.57;7.07;;;19.60;99.90;;;;;;5013457;28;20464;-79
2022/05/17 06:39:20;;;;;;;12.43;5.90;;;19.60;99.90;;;;;;5012439;28;20041;-80
2022/05/17 06:41:47;;;;;;;11.55;5.60;;;19.50;99.90;;;;;;4995242;28;20177;-79
2022/05/17 06:44:15;;;;;;;10.73;6.93;;;19.50;99.90;;;;;;5012259;28;20133;-78
2022/05/17 06:46:42;;;;;;;9.57;5.90;;;19.70;99.90;;;;;;5013244;28;20393;-78
2022/05/17 06:49:09;;;;;;;13.02;5.80;;;19.80;99.90;;;;;;5012374;28;20026;-79
2022/05/17 06:51:37;;;;;;;12.00;5.43;;;19.80;99.90;;;;;;5013115;28;20463;-79
2022/05/17 06:54:05;;;;;;;11.65;5.72;;;20.00;99.90;;;;;;5013668;28;20041;-81
2022/05/17 06:56:35;;;;;;;10.60;5.25;;;20.10;99.90;;;;;;5012158;28;20487;-79
2022/05/17 06:59:06;;;;;;;11.73;6.43;;;20.20;99.80;;;;;;5011941;28;20061;-79
2022/05/17 07:01:34;;;;;;;11.05;6.07;;;20.10;99.60;;;;;;5011909;28;20456;-78
2022/05/17 07:04:02;;;;;;;8.55;5.90;;;20.10;99.80;;;;;;5013341;28;20038;-78
2022/05/17 07:06:30;;;;;;;11.18;5.75;;;20.20;99.80;;;;;;5012264;28;20434;-79
2022/05/17 07:08:57;;;;;;;14.95;5.95;;;20.30;99.10;;;;;;4995728;28;20119;-79
2022/05/17 07:14:11;;;;;;;15.43;5.60;;;20.30;98.50;;;;;;5013389;28;20120;-79
2022/05/17 07:16:38;;;;;;;10.95;6.13;;;20.30;98.80;;;;;;5011823;28;20460;-78
2022/05/17 07:19:05;;;;;;;12.48;6.30;;;20.30;98.60;;;;;;5012357;28;20156;-79
2022/05/17 07:21:53;;;;;;;17.92;6.32;;;20.50;98.50;;;;;;5012526;28;20038;-79
2022/05/17 07:24:20;;;;;;;12.85;6.38;;;20.40;98.30;;;;;;5011439;28;20286;-81
2022/05/17 07:26:47;;;;;;;14.00;6.57;;;20.40;97.70;;;;;;5012527;28;20053;-79
2022/05/17 07:29:35;;;;;;;13.93;6.20;;;20.50;98.40;;;;;;5012414;28;20034;-79
2022/05/17 07:32:02;;;;;;;19.00;6.00;;;20.70;98.00;;;;;;4994674;28;20104;-80
2022/05/17 07:34:30;;;;;;;19.38;6.45;;;20.80;97.80;;;;;;5011671;28;20034;-79
2022/05/17 07:36:57;;;;;;;14.15;6.55;;;20.80;97.60;;;;;;5011367;28;20054;-80
2022/05/17 07:39:25;;;;;;;19.52;6.07;;;20.90;97.30;;;;;;5011313;28;20092;-80
2022/05/17 07:41:52;;;;;;;19.27;6.82;;;21.00;97.00;;;;;;4995026;28;20045;-80
2022/05/17 07:44:20;;;;;;;10.45;6.22;;;21.00;96.90;;;;;;5011256;28;20042;-80
2022/05/17 07:46:47;;;;;;;12.27;6.45;;;21.00;97.10;;;;;;4994592;28;20088;-78
2022/05/17 07:49:14;;;;;;;10.95;5.72;;;21.10;97.30;;;;;;5012397;28;20088;-77
2022/05/17 07:51:42;;;;;;;13.65;5.43;;;21.20;96.70;;;;;;5011091;28;20266;-78
2022/05/17 07:54:09;;;;;;;11.75;5.75;;;21.30;96.10;;;;;;5010461;28;20108;-79
2022/05/17 07:56:36;;;;;;;11.60;5.38;;;21.30;95.40;;;;;;5011869;28;20442;-79
2022/05/17 07:59:03;;;;;;;10.30;6.18;;;21.30;95.00;;;;;;5011074;28;20088;-79
2022/05/17 08:01:31;;;;;;;9.68;4.97;;;21.30;94.80;;;;;;5011880;28;20422;-79
2022/05/17 08:03:59;;;;;;;10.23;4.93;;;21.40;93.70;;;;;;5011294;28;20053;-81
2022/05/17 08:06:26;;;;;;;11.15;5.05;;;21.50;93.10;;;;;;5010921;28;20467;-78
2022/05/17 08:08:54;;;;;;;10.63;5.47;;;21.60;93.40;;;;;;5012070;28;20038;-80
2022/05/17 08:11:25;;;;;;;9.82;5.50;;;21.60;93.40;;;;;;5010528;28;20054;-79
2022/05/17 08:13:52;;;;;;;13.57;6.10;;;21.60;93.80;;;;;;5011395;28;20038;-79
2022/05/17 08:16:41;;;;;;;8.98;4.93;;;21.50;93.60;;;;;;5025571;28;20099;-78
2022/05/17 08:19:12;;;;;;;17.05;5.30;;;21.70;93.40;;;;;;5030929;28;20055;-80
2022/05/17 08:21:39;;;;;;;8.73;4.93;;;21.70;92.40;;;;;;5030575;28;20107;-79
2022/05/17 08:24:07;;;;;;;10.60;5.50;;;21.60;91.50;;;;;;5013869;28;20108;-80
2022/05/17 08:29:20;;;;;;;9.52;5.00;;;21.90;91.60;;;;;;5031355;28;20038;-79
2022/05/17 08:34:33;;;;;;;9.68;5.60;;;22.00;91.60;;;;;;5031337;28;20029;-81
2022/05/17 08:37:01;;;;;;;9.93;5.43;;;22.20;92.20;;;;;;5030851;28;20377;-81
2022/05/17 08:39:29;;;;;;;9.90;5.32;;;22.20;91.20;;;;;;5031040;28;20045;-80
2022/05/17 08:42:08;;;;;;;14.75;5.22;;;22.20;91.30;;;;;;5029625;28;20037;-81
2022/05/17 08:44:48;;;;;;;12.00;7.07;;;22.20;91.10;;;;;;5030065;28;20486;-80
2022/05/17 08:47:30;;;;;;;8.65;4.63;;;22.30;91.00;;;;;;5031204;28;20036;-80
2022/05/17 08:50:25;;;;;;;8.95;5.18;;;22.40;90.80;;;;;;5031158;28;20041;-77
2022/05/17 08:52:54;;;;;;;9.60;5.43;;;22.60;91.90;;;;;;5031242;28;20125;-79
2022/05/17 08:55:31;;;;;;;13.07;5.32;;;22.70;91.60;;;;;;5028914;28;20072;-81
2022/05/17 08:58:12;;;;;;;14.40;5.68;;;22.60;91.30;;;;;;5009738;28;20391;-80
2022/05/17 09:00:52;;;;;;;10.38;5.40;;;22.70;91.00;;;;;;5008210;28;20037;-80
2022/05/17 09:03:29;;;;;;;12.68;5.43;;;22.80;90.80;;;;;;4994053;28;20050;-81
2022/05/17 09:06:35;;;;;;;12.60;5.35;;;22.90;90.80;;;;;;5012951;28;20498;-80
2022/05/17 09:09:18;;;;;;;15.43;5.00;;;23.10;91.70;;;;;;5006990;28;20451;-80
2022/05/17 09:12:09;;;;;;;11.65;5.53;;;23.40;90.40;;;;;;5014617;28;20034;-80
2022/05/17 09:14:42;;;;;;;14.82;5.68;;;23.40;90.20;;;;;;5013859;28;20510;-79
2022/05/17 09:17:16;;;;;;;16.50;5.10;;;23.60;88.70;;;;;;5012735;28;20074;-77
2022/05/17 09:19:43;;;;;;;16.88;5.50;;;23.70;88.00;;;;;;5011864;28;20092;-79
2022/05/17 09:22:11;;;;;;;17.10;5.13;;;23.80;87.70;;;;;;5012494;28;20121;-78
2022/05/17 09:24:41;;;;;;;12.15;5.32;;;23.70;86.20;;;;;;5011463;28;20498;-79
2022/05/17 09:27:23;;;;;;;12.35;5.13;;;23.70;84.00;;;;;;5012856;28;20065;-79
2022/05/17 09:29:57;;;;;;;8.07;5.03;;;23.90;83.70;;;;;;5012974;28;20033;-79
2022/05/17 09:32:34;;;;;;;9.43;4.65;;;24.20;81.40;;;;;;5014749;28;20041;-78
2022/05/17 09:35:15;;;;;;;12.32;4.80;;;24.20;80.40;;;;;;5014487;28;20108;-80
2022/05/17 09:37:49;;;;;;;8.82;4.05;;;24.40;79.00;;;;;;5012800;28;20053;-77
2022/05/17 09:40:24;;;;;;;11.95;5.38;;;24.40;79.50;;;;;;5011331;28;20060;-85
2022/05/17 09:42:58;;;;;;;9.93;5.65;;;24.20;81.70;;;;;;5012091;28;20430;-79
2022/05/17 09:45:45;;;;;;;12.02;5.25;;;24.10;81.60;;;;;;5012316;28;20121;-79
2022/05/17 09:48:30;;;;;;;11.10;5.22;;;24.30;83.40;;;;;;5012395;28;20045;-81
2022/05/17 09:53:44;;;;;;;12.48;5.47;;;24.30;79.60;;;;;;5013838;28;20092;-83
2022/05/17 09:56:13;;;;;;;9.90;5.03;;;24.40;81.50;;;;;;5013884;28;20046;-84
2022/05/17 09:58:42;;;;;;;12.57;5.10;;;24.50;81.10;;;;;;5014008;28;20156;-80
2022/05/17 10:01:16;;;;;;;7.75;4.50;;;24.70;81.40;;;;;;5014305;28;20061;-87
2022/05/17 10:04:20;;;;;;;9.35;4.70;;;25.00;80.90;;;;;;5014179;28;20053;-75
2022/05/17 10:06:55;;;;;;;9.18;4.55;;;25.10;78.60;;;;;;5013698;28;20042;-80
2022/05/17 10:09:34;;;;;;;12.27;4.70;;;25.20;81.30;;;;;;5013905;28;20030;-74
2022/05/17 10:12:07;;;;;;;9.38;4.40;;;25.60;78.60;;;;;;5013565;28;20038;-76
2022/05/17 10:14:40;;;;;;;6.68;4.00;;;25.70;77.90;;;;;;5013438;28;20045;-75
2022/05/17 10:17:18;;;;;;;8.73;4.57;;;25.60;76.20;;;;;;5012509;28;20463;-77
2022/05/17 10:20:01;;;;;;;11.90;4.55;;;25.60;76.00;;;;;;5013726;28;20054;-75
2022/05/17 10:22:47;;;;;;;7.57;3.65;;;25.90;76.80;;;;;;5013423;28;20050;-76
2022/05/17 10:25:42;;;;;;;9.93;4.20;;;26.00;71.80;;;;;;5013604;28;20122;-76
2022/05/17 10:28:52;;;;;;;6.45;3.75;;;26.10;70.30;;;;;;5013537;28;20038;-74
2022/05/17 10:31:31;;;;;;;7.53;3.47;;;26.10;70.90;;;;;;5010467;28;20045;-75
2022/05/17 10:34:18;;;;;;;7.82;4.07;;;26.40;67.70;;;;;;5013737;28;20357;-76
2022/05/17 10:36:49;;;;;;;11.85;3.60;;;26.30;64.50;;;;;;5012071;28;20061;-74
2022/05/17 10:39:33;;;;;;;4.82;3.08;;;25.90;64.40;;;;;;5013599;28;20129;-75
2022/05/17 10:42:01;;;;;;;7.93;3.47;;;25.90;64.10;;;;;;5012739;28;20042;-76
2022/05/17 10:44:39;;;;;;;7.18;3.50;;;26.10;63.50;;;;;;5013352;28;20045;-74
2022/05/17 10:47:20;;;;;;;13.93;3.58;;;26.10;63.50;;;;;;5013182;28;20066;-74
2022/05/17 10:50:35;;;;;;;8.10;3.60;;;26.20;64.30;;;;;;5013162;28;20042;-74
2022/05/17 10:53:28;;;;;;;9.02;3.75;;;26.40;64.20;;;;;;4990670;28;20518;-73
2022/05/17 10:56:20;;;;;;;9.20;3.40;;;26.70;64.00;;;;;;5012513;28;20385;-75
2022/05/17 10:59:25;;;;;;;10.93;4.10;;;27.20;64.00;;;;;;5012884;28;20108;-76
2022/05/17 11:02:15;;;;;;;5.50;3.22;;;27.00;63.40;;;;;;5012378;28;20045;-74
2022/05/17 11:05:13;;;;;;;8.18;3.55;;;26.80;62.30;;;;;;4982243;28;20464;-76
2022/05/17 11:07:59;;;;;;;8.20;3.47;;;27.00;62.80;;;;;;5012680;28;20034;-75
2022/05/17 11:10:38;;;;;;;9.13;3.67;;;27.30;62.50;;;;;;5011230;28;20478;-75
2022/05/17 11:13:17;;;;;;;9.10;3.63;;;27.30;60.70;;;;;;5012503;28;20045;-76
2022/05/17 11:15:54;;;;;;;12.10;3.83;;;27.30;61.90;;;;;;5011041;28;20487;-76
2022/05/17 11:18:36;;;;;;;6.03;3.40;;;27.20;61.70;;;;;;5012155;28;20050;-74
2022/05/17 11:21:16;;;;;;;7.90;3.80;;;27.70;62.20;;;;;;5012190;28;20479;-74
2022/05/17 11:23:47;;;;;;;10.15;3.22;;;27.80;61.90;;;;;;5012311;28;20066;-75
2022/05/17 11:26:27;;;;;;;6.82;3.55;;;28.00;59.70;;;;;;5011251;28;20545;-76
2022/05/17 11:29:14;;;;;;;12.10;4.85;;;27.70;58.90;;;;;;5011149;28;20126;-74
2022/05/17 11:31:50;;;;;;;7.03;3.70;;;27.50;63.10;;;;;;5010711;28;20104;-76
2022/05/17 11:34:31;;;;;;;11.32;3.47;;;27.60;59.40;;;;;;5011234;28;20116;-77
2022/05/17 11:37:05;;;;;;;7.32;3.92;;;27.80;59.50;;;;;;5011037;28;20065;-75
2022/05/17 11:39:39;;;;;;;6.65;3.28;;;28.10;60.20;;;;;;4995230;28;20073;-75
2022/05/17 11:42:07;;;;;;;8.60;3.70;;;28.50;61.50;;;;;;5012049;28;20034;-75
2022/05/17 11:44:48;;;;;;;5.07;3.28;;;28.30;60.20;;;;;;5011056;28;20076;-76
2022/05/17 11:47:33;;;;;;;6.70;3.58;;;28.40;60.30;;;;;;5011886;28;20113;-76
2022/05/17 11:50:15;;;;;;;7.00;3.80;;;28.40;61.60;;;;;;5011895;28;20066;-76
2022/05/17 11:52:46;;;;;;;6.35;3.63;;;28.20;59.70;;;;;;5011899;28;20093;-75
2022/05/17 11:58:29;;;;;;;7.13;3.30;;;28.50;59.50;;;;;;4970617;28;20162;-75
2022/05/17 12:00:56;;;;;;;8.88;3.00;;;28.70;60.00;;;;;;4970483;28;20062;-76
2022/05/17 12:03:45;;;;;;;13.68;4.00;;;28.50;59.20;;;;;;4953967;28;20634;-77
2022/05/17 12:06:34;;;;;;;6.28;2.95;;;28.70;58.90;;;;;;4970441;28;20082;-75
2022/05/17 12:09:20;;;;;;;6.22;3.13;;;28.70;59.20;;;;;;4970445;28;20487;-74
2022/05/17 12:12:23;;;;;;;5.65;3.30;;;28.90;58.60;;;;;;4969932;28;20054;-74
2022/05/17 12:14:50;;;;;;;6.43;3.25;;;29.10;59.50;;;;;;4954198;28;20444;-75
2022/05/17 12:17:26;;;;;;;11.48;2.72;;;29.20;59.30;;;;;;4954302;28;20051;-74
2022/05/17 12:20:11;;;;;;;8.35;3.28;;;29.30;58.80;;;;;;4970399;28;20401;-79
2022/05/17 12:22:46;;;;;;;11.43;3.35;;;29.60;58.00;;;;;;4970143;28;20057;-72
2022/05/17 12:25:34;;;;;;;5.80;2.80;;;29.60;58.00;;;;;;4970381;28;20048;-73
2022/05/17 12:28:29;;;;;;;4.95;2.90;;;29.70;57.30;;;;;;4974061;28;20050;-78
2022/05/17 12:31:01;;;;;;;7.22;2.90;;;29.60;58.80;;;;;;4992239;28;20089;-76
2022/05/17 12:33:33;;;;;;;7.10;3.00;;;30.00;56.50;;;;;;4992152;28;20042;-74
2022/05/17 12:36:28;;;;;;;5.43;2.70;;;30.30;56.00;;;;;;4992111;28;20542;-73
2022/05/17 12:44:44;;;;;;;7.45;3.03;;;30.60;55.50;;;;;;4995859;28;20060;-78
2022/05/17 12:47:18;;;;;;;6.95;2.97;;;30.20;55.10;;;;;;4995957;28;20096;-79
2022/05/17 12:49:53;;;;;;;6.55;2.90;;;30.00;55.60;;;;;;4995799;28;20121;-77
2022/05/17 12:52:36;;;;;;;7.53;3.42;;;30.20;56.00;;;;;;4994552;28;20089;-79
2022/05/17 12:55:11;;;;;;;7.03;2.92;;;30.00;56.30;;;;;;4995712;28;20453;-78
2022/05/17 12:57:39;;;;;;;7.03;3.10;;;30.40;55.30;;;;;;5009071;28;20077;-78
2022/05/17 13:00:15;;;;;;;6.85;2.72;;;30.70;55.50;;;;;;5014209;28;20046;-80
2022/05/17 13:02:52;;;;;;;8.88;2.70;;;30.90;55.00;;;;;;5015074;28;20085;-82
2022/05/17 13:05:43;;;;;;;7.40;2.97;;;31.10;53.90;;;;;;5015172;28;20377;-77
2022/05/17 13:08:13;;;;;;;9.25;2.80;;;31.20;55.10;;;;;;5014131;28;20049;-77
2022/05/17 13:10:43;;;;;;;5.88;2.70;;;31.10;54.50;;;;;;5015150;28;20132;-78
2022/05/17 13:13:17;;;;;;;4.35;2.50;;;30.90;54.60;;;;;;5014819;28;20422;-78
2022/05/17 13:15:49;;;;;;;8.30;3.15;;;31.20;55.10;;;;;;5014878;28;20080;-77
2022/05/17 13:18:19;;;;;;;6.32;3.05;;;31.30;55.40;;;;;;5013907;28;20128;-77
2022/05/17 13:20:50;;;;;;;5.60;2.88;;;31.20;53.70;;;;;;5013645;28;20050;-81
2022/05/17 13:23:22;;;;;;;9.55;2.90;;;30.70;53.20;;;;;;5014876;28;20132;-79
2022/05/17 13:25:51;;;;;;;6.07;2.80;;;30.80;54.40;;;;;;5015079;28;20072;-75
2022/05/17 13:28:27;;;;;;;5.35;2.67;;;30.80;53.50;;;;;;5014507;28;20541;-77
2022/05/17 13:31:23;;;;;;;4.80;2.80;;;31.00;53.10;;;;;;4997600;28;20048;-78
2022/05/17 13:34:03;;;;;;;9.35;3.05;;;31.10;52.70;;;;;;5012765;28;20115;-82